Time;durP1;ratioP1;P1;durP2;ratioP2;P2;SDS_P1;SDS_P2;PMS_P1;PMS_P2;Temp;Humidity;BMP_temperature;BMP_pressure;BME280_temperature;BME280_humidity;BME280_pressure;Samples;Min_cycle;Max_cycle;Signal;HPM_P1;HPM_P2
2022/08/18 00:40:43;;;;;;;1999.90;999.90;;;;;;;;;;5224396;22;20294;-67
2022/08/18 00:43:31;;;;;;;1999.90;999.90;;;;;;;;;;5026828;28;20607;-68
2022/08/18 00:46:18;;;;;;;1999.90;999.90;;;;;;;;;;5025683;28;20559;-67
2022/08/18 00:49:03;;;;;;;1999.90;999.90;;;;;;;;;;5009790;28;20228;-67
2022/08/18 00:51:50;;;;;;;1999.90;999.90;;;;;;;;;;5002093;28;20745;-67
2022/08/18 00:54:36;;;;;;;1999.90;999.90;;;;;;;;;;4997560;28;20663;-68
2022/08/18 00:57:23;;;;;;;1999.90;999.90;;;;;;;;;;4997588;28;20584;-68
2022/08/18 01:00:11;;;;;;;1999.90;999.90;;;;;;;;;;4994908;28;20746;-67
2022/08/18 01:02:57;;;;;;;1999.90;999.90;;;;;;;;;;4996041;28;20213;-69
2022/08/18 01:05:45;;;;;;;1999.90;999.90;;;;;;;;;;5010439;28;20272;-68
2022/08/18 01:08:30;;;;;;;1999.90;999.90;;;;;;;;;;5012326;28;20706;-68
2022/08/18 01:11:15;;;;;;;1999.90;999.90;;;;;;;;;;5012518;28;20573;-68
2022/08/18 01:14:01;;;;;;;1999.90;999.90;;;;;;;;;;5002264;28;20751;-69
2022/08/18 01:22:58;;;;;;;1999.90;999.90;;;;;;;;;;5011791;28;20205;-68
2022/08/18 01:26:02;;;;;;;1999.90;999.90;;;;;;;;;;5008081;28;20411;-69
2022/08/18 01:28:48;;;;;;;1999.90;999.90;;;;;;;;;;5010810;28;20347;-68
2022/08/18 01:31:36;;;;;;;1999.90;999.90;;;;;;;;;;4993669;28;20340;-69
2022/08/18 01:34:23;;;;;;;1999.90;999.90;;;;;;;;;;5009143;28;20648;-68
2022/08/18 01:37:08;;;;;;;1999.90;999.90;;;;;;;;;;5008592;28;20228;-68
2022/08/18 01:39:55;;;;;;;1999.90;999.90;;;;;;;;;;4993581;28;20276;-68
2022/08/18 01:42:42;;;;;;;1999.90;999.90;;;;;;;;;;5005063;28;20343;-66
2022/08/18 01:45:27;;;;;;;1999.90;999.90;;;;;;;;;;4994241;28;20405;-68
2022/08/18 01:48:12;;;;;;;1999.90;999.90;;;;;;;;;;4996052;28;20233;-69
2022/08/18 01:50:57;;;;;;;1999.90;999.90;;;;;;;;;;5005176;28;20208;-68
2022/08/18 01:53:42;;;;;;;1999.90;999.90;;;;;;;;;;5005255;28;20299;-69
2022/08/18 01:56:28;;;;;;;1999.90;999.90;;;;;;;;;;5006612;28;20576;-68
2022/08/18 01:59:13;;;;;;;1999.90;999.90;;;;;;;;;;5013258;28;20239;-69
2022/08/18 02:01:59;;;;;;;1999.90;999.90;;;;;;;;;;5000359;28;20212;-69
2022/08/18 02:04:44;;;;;;;1999.90;999.90;;;;;;;;;;5013163;28;20217;-69
2022/08/18 02:07:29;;;;;;;1999.90;999.90;;;;;;;;;;5013120;28;20205;-68
2022/08/18 02:10:16;;;;;;;1999.90;999.90;;;;;;;;;;5012893;28;20258;-69
2022/08/18 02:13:03;;;;;;;1999.90;999.90;;;;;;;;;;5006587;28;20259;-69
2022/08/18 02:15:48;;;;;;;1999.90;999.90;;;;;;;;;;5001468;28;20210;-69
2022/08/18 02:18:34;;;;;;;1999.90;999.90;;;;;;;;;;4995495;28;20367;-69
2022/08/18 02:21:20;;;;;;;1999.90;999.90;;;;;;;;;;4993415;28;20313;-69
2022/08/18 02:24:06;;;;;;;1999.90;999.90;;;;;;;;;;4993337;28;20281;-68
2022/08/18 02:26:51;;;;;;;1999.90;999.90;;;;;;;;;;4998074;28;20211;-69
2022/08/18 02:29:37;;;;;;;1999.90;999.90;;;;;;;;;;5012948;28;20224;-69
2022/08/18 02:32:22;;;;;;;1999.90;999.90;;;;;;;;;;5012930;28;20331;-69
2022/08/18 02:35:08;;;;;;;1999.90;999.90;;;;;;;;;;5012460;28;20211;-69
2022/08/18 02:37:53;;;;;;;1999.90;999.90;;;;;;;;;;5003440;28;20243;-69
2022/08/18 02:40:38;;;;;;;1999.90;999.90;;;;;;;;;;5004527;28;20692;-70
2022/08/18 02:43:23;;;;;;;1999.90;999.90;;;;;;;;;;5012001;28;20753;-69
2022/08/18 02:46:09;;;;;;;1999.90;999.90;;;;;;;;;;5012446;28;20298;-69
2022/08/18 02:48:55;;;;;;;1999.90;999.90;;;;;;;;;;5012771;28;20223;-69
2022/08/18 02:51:40;;;;;;;1999.90;999.90;;;;;;;;;;4996427;28;20343;-69
2022/08/18 02:54:25;;;;;;;1999.90;999.90;;;;;;;;;;4973607;28;20212;-69
2022/08/18 02:57:11;;;;;;;1999.90;999.90;;;;;;;;;;4973292;28;20207;-69
2022/08/18 02:59:56;;;;;;;1999.90;999.90;;;;;;;;;;4973486;28;20722;-69
2022/08/18 03:02:46;;;;;;;1999.90;999.90;;;;;;;;;;4973463;28;20200;-69
2022/08/18 03:05:31;;;;;;;1999.90;999.90;;;;;;;;;;4994628;28;20567;-69
2022/08/18 03:08:16;;;;;;;1999.90;999.90;;;;;;;;;;4992664;28;20204;-69
2022/08/18 03:11:01;;;;;;;1999.90;999.90;;;;;;;;;;4992786;28;20207;-68
2022/08/18 03:13:46;;;;;;;1999.90;999.90;;;;;;;;;;4992782;28;20565;-69
2022/08/18 03:16:31;;;;;;;1999.90;999.90;;;;;;;;;;4992700;28;20211;-69
2022/08/18 03:19:18;;;;;;;1999.90;999.90;;;;;;;;;;4990477;28;20235;-69
2022/08/18 03:22:04;;;;;;;1999.90;999.90;;;;;;;;;;5000975;28;20777;-68
2022/08/18 03:24:49;;;;;;;1999.90;999.90;;;;;;;;;;5012023;28;20289;-69
2022/08/18 03:27:34;;;;;;;1999.90;999.90;;;;;;;;;;5012195;28;20213;-69
2022/08/18 03:30:19;;;;;;;1999.90;999.90;;;;;;;;;;5012087;28;20591;-69
2022/08/18 03:33:04;;;;;;;1999.90;999.90;;;;;;;;;;5006174;28;20214;-69
2022/08/18 03:35:51;;;;;;;1999.90;999.90;;;;;;;;;;5003610;28;20216;-69
2022/08/18 03:38:36;;;;;;;1999.90;999.90;;;;;;;;;;5012072;28;20740;-69
2022/08/18 03:41:23;;;;;;;1999.90;999.90;;;;;;;;;;5010809;28;20551;-69
2022/08/18 03:44:08;;;;;;;1999.90;999.90;;;;;;;;;;5011580;28;20211;-68
2022/08/18 03:46:54;;;;;;;1999.90;999.90;;;;;;;;;;5004139;28;20300;-69
2022/08/18 03:49:40;;;;;;;1999.90;999.90;;;;;;;;;;5005974;28;20257;-69
2022/08/18 03:52:26;;;;;;;1999.90;999.90;;;;;;;;;;5001944;28;20210;-69
2022/08/18 03:55:11;;;;;;;1999.90;999.90;;;;;;;;;;5015605;28;20332;-69
2022/08/18 03:58:01;;;;;;;1999.90;999.90;;;;;;;;;;5015902;28;20278;-69
2022/08/18 04:00:46;;;;;;;1999.90;999.90;;;;;;;;;;5010482;28;20317;-69
2022/08/18 04:03:31;;;;;;;1999.90;999.90;;;;;;;;;;5004054;28;20216;-69
2022/08/18 04:06:17;;;;;;;1999.90;999.90;;;;;;;;;;4995797;28;20813;-69
2022/08/18 04:09:05;;;;;;;1999.90;999.90;;;;;;;;;;4996014;28;20220;-69
2022/08/18 04:11:50;;;;;;;1999.90;999.90;;;;;;;;;;4996009;28;20236;-69
2022/08/18 04:14:34;;;;;;;1999.90;999.90;;;;;;;;;;4994653;28;20337;-69
2022/08/18 04:17:23;;;;;;;1999.90;999.90;;;;;;;;;;5003687;28;20787;-69
2022/08/18 04:20:10;;;;;;;1999.90;999.90;;;;;;;;;;4995785;28;20233;-69
2022/08/18 04:22:55;;;;;;;1999.90;999.90;;;;;;;;;;4995844;28;20269;-69
2022/08/18 04:25:41;;;;;;;1999.90;999.90;;;;;;;;;;4995326;28;20210;-69
2022/08/18 04:28:27;;;;;;;1999.90;999.90;;;;;;;;;;4995735;28;20203;-68
2022/08/18 04:31:13;;;;;;;1999.90;999.90;;;;;;;;;;4996592;28;20228;-68
2022/08/18 04:33:58;;;;;;;1999.90;999.90;;;;;;;;;;5006986;28;20212;-68
2022/08/18 04:36:44;;;;;;;1999.90;999.90;;;;;;;;;;5015111;28;20795;-69
2022/08/18 04:39:29;;;;;;;1999.90;999.90;;;;;;;;;;5013562;28;20432;-68
2022/08/18 04:42:15;;;;;;;1999.90;999.90;;;;;;;;;;5015033;28;20308;-68
2022/08/18 04:45:00;;;;;;;1999.90;999.90;;;;;;;;;;5007642;28;20701;-69
2022/08/18 04:47:45;;;;;;;1999.90;999.90;;;;;;;;;;5006451;28;20447;-68
2022/08/18 04:50:30;;;;;;;1999.90;999.90;;;;;;;;;;5014596;28;20230;-69
2022/08/18 04:56:21;;;;;;;1999.90;999.90;;;;;;;;;;5014536;28;20246;-68
2022/08/18 04:59:09;;;;;;;1999.90;999.90;;;;;;;;;;5002236;28;20788;-69
2022/08/18 05:01:54;;;;;;;1999.90;999.90;;;;;;;;;;5008827;28;20214;-68
2022/08/18 05:04:40;;;;;;;1999.90;999.90;;;;;;;;;;5005012;28;20251;-67
2022/08/18 05:07:25;;;;;;;1999.90;999.90;;;;;;;;;;4995118;28;20357;-68
2022/08/18 05:10:11;;;;;;;1999.90;999.90;;;;;;;;;;4999855;28;20230;-69
2022/08/18 05:12:56;;;;;;;1999.90;999.90;;;;;;;;;;5011706;28;20206;-68
2022/08/18 05:15:42;;;;;;;1999.90;999.90;;;;;;;;;;5002040;28;20702;-68
2022/08/18 05:18:27;;;;;;;1999.90;999.90;;;;;;;;;;4994625;28;20310;-68
2022/08/18 05:21:14;;;;;;;1999.90;999.90;;;;;;;;;;4994713;28;20705;-68
2022/08/18 05:23:59;;;;;;;1999.90;999.90;;;;;;;;;;4994576;28;20244;-69
2022/08/18 05:26:44;;;;;;;1999.90;999.90;;;;;;;;;;4991731;28;20212;-68
2022/08/18 05:29:33;;;;;;;1999.90;999.90;;;;;;;;;;4975045;28;20231;-68
2022/08/18 05:32:19;;;;;;;1999.90;999.90;;;;;;;;;;4986962;28;20206;-67
2022/08/18 05:35:06;;;;;;;1999.90;999.90;;;;;;;;;;4991217;28;20713;-66
2022/08/18 05:37:57;;;;;;;1999.90;999.90;;;;;;;;;;4994939;28;20786;-67
2022/08/18 05:40:44;;;;;;;1999.90;999.90;;;;;;;;;;4995358;28;20227;-67
2022/08/18 05:43:30;;;;;;;1999.90;999.90;;;;;;;;;;4993337;28;20599;-66
2022/08/18 05:46:15;;;;;;;1999.90;999.90;;;;;;;;;;4993379;28;20208;-68
2022/08/18 05:49:02;;;;;;;1999.90;999.90;;;;;;;;;;5001477;28;20719;-68
2022/08/18 05:51:48;;;;;;;1999.90;999.90;;;;;;;;;;5010889;28;20696;-67
2022/08/18 05:57:44;;;;;;;1999.90;999.90;;;;;;;;;;4991013;28;20532;-68
2022/08/18 06:00:29;;;;;;;1999.90;999.90;;;;;;;;;;4995465;28;20309;-67
2022/08/18 06:03:16;;;;;;;1999.90;999.90;;;;;;;;;;5005572;28;20270;-67
2022/08/18 06:06:05;;;;;;;1999.90;999.90;;;;;;;;;;4992729;28;20208;-65
2022/08/18 06:08:53;;;;;;;1999.90;999.90;;;;;;;;;;4993206;28;20218;-66
2022/08/18 06:11:38;;;;;;;1999.90;999.90;;;;;;;;;;4992622;28;20209;-66
2022/08/18 06:14:23;;;;;;;1999.90;999.90;;;;;;;;;;4997309;28;20205;-66
2022/08/18 06:17:11;;;;;;;1999.90;999.90;;;;;;;;;;5000813;28;20260;-66
2022/08/18 06:20:02;;;;;;;1999.90;999.90;;;;;;;;;;5010879;28;20253;-66
2022/08/18 06:22:53;;;;;;;1999.90;999.90;;;;;;;;;;4997200;28;20341;-67
2022/08/18 06:25:47;;;;;;;1999.90;999.90;;;;;;;;;;4999564;28;20629;-67
2022/08/18 06:28:39;;;;;;;1999.90;999.90;;;;;;;;;;4994427;28;20227;-67
2022/08/18 06:31:28;;;;;;;1999.90;999.90;;;;;;;;;;4993634;28;20597;-67
2022/08/18 06:34:18;;;;;;;1999.90;999.90;;;;;;;;;;4992915;28;20440;-65
2022/08/18 06:37:08;;;;;;;1999.90;999.90;;;;;;;;;;4995778;28;20350;-66
2022/08/18 06:39:55;;;;;;;1999.90;999.90;;;;;;;;;;4992488;28;20275;-66
2022/08/18 06:42:40;;;;;;;1999.90;999.90;;;;;;;;;;4988948;28;20694;-65
2022/08/18 06:45:31;;;;;;;1999.90;999.90;;;;;;;;;;4995583;28;20286;-66
2022/08/18 06:48:19;;;;;;;1999.90;999.90;;;;;;;;;;4993349;28;20266;-67
2022/08/18 06:51:06;;;;;;;1999.90;999.90;;;;;;;;;;4993822;28;20213;-67
2022/08/18 06:53:53;;;;;;;1999.90;999.90;;;;;;;;;;4995297;28;20219;-66
2022/08/18 06:56:50;;;;;;;1999.90;999.90;;;;;;;;;;4993642;28;20217;-67
2022/08/18 06:59:37;;;;;;;1999.90;999.90;;;;;;;;;;4994517;28;20227;-65
2022/08/18 07:02:24;;;;;;;1999.90;999.90;;;;;;;;;;4994426;28;20267;-66
2022/08/18 07:05:18;;;;;;;1999.90;999.90;;;;;;;;;;5009399;28;20214;-66
2022/08/18 07:08:06;;;;;;;1999.90;999.90;;;;;;;;;;4988800;28;20814;-65
2022/08/18 07:10:52;;;;;;;1999.90;999.90;;;;;;;;;;4994091;28;20236;-65
2022/08/18 07:13:40;;;;;;;1999.90;999.90;;;;;;;;;;4990776;28;20441;-67
2022/08/18 07:16:29;;;;;;;1999.90;999.90;;;;;;;;;;4998262;28;20218;-67
2022/08/18 07:19:17;;;;;;;1999.90;999.90;;;;;;;;;;4994347;28;20481;-67
2022/08/18 07:22:04;;;;;;;1999.90;999.90;;;;;;;;;;4993023;28;20206;-67
2022/08/18 07:24:49;;;;;;;1999.90;999.90;;;;;;;;;;5006356;28;20285;-67
2022/08/18 07:27:42;;;;;;;1999.90;999.90;;;;;;;;;;5007360;28;20206;-66
2022/08/18 07:30:34;;;;;;;1999.90;999.90;;;;;;;;;;4997019;28;20247;-66
2022/08/18 07:33:21;;;;;;;1999.90;999.90;;;;;;;;;;4991658;28;20401;-67
2022/08/18 07:36:09;;;;;;;1999.90;999.90;;;;;;;;;;4992757;28;20229;-67
2022/08/18 07:38:56;;;;;;;1999.90;999.90;;;;;;;;;;4991286;28;20606;-66
2022/08/18 07:41:42;;;;;;;1999.90;999.90;;;;;;;;;;5000746;28;20710;-66
2022/08/18 07:44:34;;;;;;;1999.90;999.90;;;;;;;;;;4991920;28;20203;-66
2022/08/18 07:47:24;;;;;;;1999.90;999.90;;;;;;;;;;4996348;28;20214;-66
2022/08/18 07:50:09;;;;;;;1999.90;999.90;;;;;;;;;;4994276;28;20211;-67
2022/08/18 07:52:58;;;;;;;1999.90;999.90;;;;;;;;;;4995420;28;20281;-67
2022/08/18 07:55:45;;;;;;;1999.90;999.90;;;;;;;;;;4993048;28;20219;-68
2022/08/18 07:58:34;;;;;;;1999.90;999.90;;;;;;;;;;4989288;28;20199;-66
2022/08/18 08:01:23;;;;;;;1999.90;999.90;;;;;;;;;;5004862;28;20561;-67
2022/08/18 08:04:13;;;;;;;1999.90;999.90;;;;;;;;;;4997390;28;20212;-67
2022/08/18 08:07:02;;;;;;;1999.90;999.90;;;;;;;;;;4993421;28;20215;-66
2022/08/18 08:09:52;;;;;;;1999.90;999.90;;;;;;;;;;4991616;28;20249;-67
2022/08/18 08:12:41;;;;;;;1999.90;999.90;;;;;;;;;;4988874;28;20268;-66
2022/08/18 08:15:31;;;;;;;1999.90;999.90;;;;;;;;;;4989703;28;20573;-67
2022/08/18 08:18:21;;;;;;;1999.90;999.90;;;;;;;;;;4997281;28;20207;-65
2022/08/18 08:21:09;;;;;;;1999.90;999.90;;;;;;;;;;4996963;28;20203;-67
2022/08/18 08:23:56;;;;;;;1999.90;999.90;;;;;;;;;;4990845;28;20211;-67
2022/08/18 08:26:47;;;;;;;1999.90;999.90;;;;;;;;;;4990733;28;20227;-67
2022/08/18 08:29:37;;;;;;;1999.90;999.90;;;;;;;;;;4989921;28;20211;-68
2022/08/18 08:32:29;;;;;;;1999.90;999.90;;;;;;;;;;4988458;28;20568;-66
2022/08/18 08:35:15;;;;;;;1999.90;999.90;;;;;;;;;;4993756;28;20286;-68
2022/08/18 08:38:06;;;;;;;1999.90;999.90;;;;;;;;;;4996729;28;20207;-65
2022/08/18 08:40:53;;;;;;;1999.90;999.90;;;;;;;;;;5000554;28;20270;-66
2022/08/18 08:43:40;;;;;;;1999.90;999.90;;;;;;;;;;4996138;28;20294;-68
2022/08/18 08:46:28;;;;;;;1999.90;999.90;;;;;;;;;;5004518;28;20221;-67
2022/08/18 08:49:19;;;;;;;1999.90;999.90;;;;;;;;;;5007250;28;21461;-67
2022/08/18 08:52:07;;;;;;;1999.90;999.90;;;;;;;;;;5002118;28;20223;-66
2022/08/18 08:54:54;;;;;;;1999.90;999.90;;;;;;;;;;4999008;28;20269;-66
2022/08/18 08:57:41;;;;;;;1999.90;999.90;;;;;;;;;;4999107;28;20341;-67
2022/08/18 09:00:27;;;;;;;1999.90;999.90;;;;;;;;;;4994001;28;20310;-65
2022/08/18 09:03:19;;;;;;;1999.90;999.90;;;;;;;;;;4995601;28;20701;-67
2022/08/18 09:06:12;;;;;;;1999.90;999.90;;;;;;;;;;4992649;28;20696;-65
2022/08/18 09:09:04;;;;;;;1999.90;999.90;;;;;;;;;;4993230;28;20408;-66
2022/08/18 09:12:03;;;;;;;1999.90;999.90;;;;;;;;;;5000579;28;20252;-67
2022/08/18 09:14:59;;;;;;;1999.90;999.90;;;;;;;;;;4992981;28;20385;-67
2022/08/18 09:17:57;;;;;;;1999.90;999.90;;;;;;;;;;4993092;28;20265;-66
2022/08/18 09:20:53;;;;;;;1999.90;999.90;;;;;;;;;;4998226;28;20237;-66
2022/08/18 09:23:41;;;;;;;1999.90;999.90;;;;;;;;;;4994784;28;20204;-66
2022/08/18 09:26:38;;;;;;;1999.90;999.90;;;;;;;;;;4995936;28;20745;-67
2022/08/18 09:29:45;;;;;;;1999.90;999.90;;;;;;;;;;4992971;28;20521;-68
2022/08/18 09:32:45;;;;;;;1999.90;999.90;;;;;;;;;;4997130;28;20278;-66
2022/08/18 09:35:34;;;;;;;1999.90;999.90;;;;;;;;;;4991320;28;20281;-67
2022/08/18 09:41:33;;;;;;;1999.90;999.90;;;;;;;;;;5010492;28;20291;-66
2022/08/18 09:44:38;;;;;;;1999.90;999.90;;;;;;;;;;4997437;28;20214;-66
2022/08/18 09:47:41;;;;;;;1999.90;999.90;;;;;;;;;;5005863;28;20205;-67
2022/08/18 10:04:12;;;;;;;1999.90;999.90;;;;;;;;;;5112807;27;20599;-66
2022/08/18 10:07:13;;;;;;;1999.90;999.90;;;;;;;;;;5121521;28;20251;-68
2022/08/18 10:10:03;;;;;;;1999.90;999.90;;;;;;;;;;5114646;28;20347;-67
2022/08/18 10:12:56;;;;;;;1999.90;999.90;;;;;;;;;;5107130;28;20215;-67
2022/08/18 10:15:52;;;;;;;1999.90;999.90;;;;;;;;;;5103844;28;20711;-68
2022/08/18 10:18:51;;;;;;;1999.90;999.90;;;;;;;;;;5107205;28;20345;-68
2022/08/18 10:21:56;;;;;;;1999.90;999.90;;;;;;;;;;5105992;28;20217;-67
2022/08/18 10:24:44;;;;;;;1999.90;999.90;;;;;;;;;;5106724;28;20210;-68
2022/08/18 10:27:35;;;;;;;1999.90;999.90;;;;;;;;;;5105978;28;20405;-67
2022/08/18 10:30:39;;;;;;;1999.90;999.90;;;;;;;;;;5103778;28;20225;-68
2022/08/18 10:33:39;;;;;;;1999.90;999.90;;;;;;;;;;5105382;28;20226;-66
2022/08/18 10:36:38;;;;;;;1999.90;999.90;;;;;;;;;;5099446;28;20202;-67
2022/08/18 10:39:26;;;;;;;1999.90;999.90;;;;;;;;;;5105458;28;20305;-65
2022/08/18 10:42:14;;;;;;;1999.90;999.90;;;;;;;;;;5106301;28;20202;-67
2022/08/18 10:45:05;;;;;;;1999.90;999.90;;;;;;;;;;5106392;28;20228;-68
2022/08/18 10:47:58;;;;;;;1999.90;999.90;;;;;;;;;;5106750;28;20250;-68
2022/08/18 10:50:48;;;;;;;1999.90;999.90;;;;;;;;;;5106728;28;20227;-68
2022/08/18 10:53:37;;;;;;;1999.90;999.90;;;;;;;;;;5105596;28;20740;-68
2022/08/18 10:56:28;;;;;;;1999.90;999.90;;;;;;;;;;5106234;28;20211;-67
2022/08/18 10:59:17;;;;;;;1999.90;999.90;;;;;;;;;;5106219;28;20246;-67
2022/08/18 11:02:14;;;;;;;1999.90;999.90;;;;;;;;;;5111702;28;20211;-68
2022/08/18 11:05:04;;;;;;;1999.90;999.90;;;;;;;;;;5108899;28;20226;-67
2022/08/18 11:07:50;;;;;;;1999.90;999.90;;;;;;;;;;5113133;28;20562;-66
2022/08/18 11:10:37;;;;;;;1999.90;999.90;;;;;;;;;;5112906;28;20226;-67
2022/08/18 11:13:25;;;;;;;1999.90;999.90;;;;;;;;;;5112745;28;20230;-68
2022/08/18 11:16:14;;;;;;;1999.90;999.90;;;;;;;;;;5112223;28;20233;-67
2022/08/18 11:19:06;;;;;;;1999.90;999.90;;;;;;;;;;5112730;28;20219;-67
2022/08/18 11:21:52;;;;;;;1999.90;999.90;;;;;;;;;;5110750;28;20199;-68
2022/08/18 11:24:43;;;;;;;1999.90;999.90;;;;;;;;;;5110758;28;20406;-68
2022/08/18 11:27:29;;;;;;;1999.90;999.90;;;;;;;;;;5111210;28;20206;-69
2022/08/18 11:30:14;;;;;;;1999.90;999.90;;;;;;;;;;5112006;28;20763;-67
2022/08/18 11:33:00;;;;;;;1999.90;999.90;;;;;;;;;;5111492;28;20211;-67
2022/08/18 11:35:47;;;;;;;1999.90;999.90;;;;;;;;;;5111597;28;20203;-66
2022/08/18 11:38:33;;;;;;;1999.90;999.90;;;;;;;;;;5110576;28;20220;-66
2022/08/18 11:41:20;;;;;;;1999.90;999.90;;;;;;;;;;5111169;28;20304;-67
2022/08/18 11:44:14;;;;;;;1999.90;999.90;;;;;;;;;;5111387;28;20965;-65
2022/08/18 11:47:10;;;;;;;1999.90;999.90;;;;;;;;;;5112377;28;20222;-67
2022/08/18 11:49:57;;;;;;;1999.90;999.90;;;;;;;;;;5108960;28;20223;-67
2022/08/18 11:52:49;;;;;;;1999.90;999.90;;;;;;;;;;5111287;28;20342;-68
2022/08/18 11:55:34;;;;;;;1999.90;999.90;;;;;;;;;;5111253;28;20690;-66
2022/08/18 11:58:34;;;;;;;1999.90;999.90;;;;;;;;;;5111150;28;20292;-67
2022/08/18 12:01:33;;;;;;;1999.90;999.90;;;;;;;;;;5112053;28;20565;-65
2022/08/18 12:04:24;;;;;;;1999.90;999.90;;;;;;;;;;5111483;28;20226;-68
2022/08/18 12:07:10;;;;;;;1999.90;999.90;;;;;;;;;;5110717;28;21526;-68
2022/08/18 12:10:13;;;;;;;1999.90;999.90;;;;;;;;;;5111878;28;20234;-67
2022/08/18 12:12:59;;;;;;;1999.90;999.90;;;;;;;;;;5110627;28;20222;-67
2022/08/18 12:15:44;;;;;;;1999.90;999.90;;;;;;;;;;5108725;28;20202;-66
2022/08/18 12:18:29;;;;;;;1999.90;999.90;;;;;;;;;;5109082;28;20244;-67
2022/08/18 12:21:14;;;;;;;1999.90;999.90;;;;;;;;;;5105979;28;20215;-67
2022/08/18 12:24:00;;;;;;;1999.90;999.90;;;;;;;;;;5109441;28;20424;-67
2022/08/18 12:26:47;;;;;;;1999.90;999.90;;;;;;;;;;5108301;28;20236;-67
2022/08/18 12:29:33;;;;;;;1999.90;999.90;;;;;;;;;;5108762;28;20227;-67
2022/08/18 12:32:18;;;;;;;1999.90;999.90;;;;;;;;;;5105641;28;20219;-67
2022/08/18 12:35:04;;;;;;;1999.90;999.90;;;;;;;;;;5108821;28;20288;-69
2022/08/18 12:37:49;;;;;;;1999.90;999.90;;;;;;;;;;5100732;28;20204;-68
2022/08/18 12:40:35;;;;;;;1999.90;999.90;;;;;;;;;;5109671;28;20317;-67
2022/08/18 12:43:21;;;;;;;1999.90;999.90;;;;;;;;;;5109107;27;20219;-66
2022/08/18 12:46:06;;;;;;;1999.90;999.90;;;;;;;;;;5112648;27;20206;-67
2022/08/18 12:48:51;;;;;;;1999.90;999.90;;;;;;;;;;5113190;27;20227;-68
2022/08/18 12:51:36;;;;;;;1999.90;999.90;;;;;;;;;;5114045;27;20288;-67
2022/08/18 12:54:21;;;;;;;1999.90;999.90;;;;;;;;;;5108504;27;20211;-67
2022/08/18 12:57:08;;;;;;;1999.90;999.90;;;;;;;;;;5114197;27;20257;-67
2022/08/18 12:59:54;;;;;;;1999.90;999.90;;;;;;;;;;5115258;27;20416;-68
2022/08/18 13:02:39;;;;;;;1999.90;999.90;;;;;;;;;;5109978;28;20210;-67
2022/08/18 13:05:24;;;;;;;1999.90;999.90;;;;;;;;;;5109593;27;20717;-68
2022/08/18 13:08:17;;;;;;;1999.90;999.90;;;;;;;;;;5108306;27;20680;-67
2022/08/18 13:11:09;;;;;;;1999.90;999.90;;;;;;;;;;5110642;27;20188;-67
2022/08/18 13:13:55;;;;;;;1999.90;999.90;;;;;;;;;;5108721;27;20252;-68
2022/08/18 13:16:44;;;;;;;1999.90;999.90;;;;;;;;;;5110371;27;20564;-67
2022/08/18 13:19:30;;;;;;;1999.90;999.90;;;;;;;;;;5108617;27;20239;-66
2022/08/18 13:22:15;;;;;;;1999.90;999.90;;;;;;;;;;5108255;27;20454;-67
2022/08/18 13:25:00;;;;;;;1999.90;999.90;;;;;;;;;;5108187;28;20211;-67
2022/08/18 13:27:45;;;;;;;1999.90;999.90;;;;;;;;;;5109184;28;20207;-68
2022/08/18 13:30:30;;;;;;;1999.90;999.90;;;;;;;;;;5105381;28;20304;-68
2022/08/18 13:33:17;;;;;;;1999.90;999.90;;;;;;;;;;5106309;28;20227;-67
2022/08/18 13:36:02;;;;;;;1999.90;999.90;;;;;;;;;;5109329;28;20645;-67
2022/08/18 13:38:48;;;;;;;1999.90;999.90;;;;;;;;;;5105296;28;20303;-67
2022/08/18 13:41:33;;;;;;;1999.90;999.90;;;;;;;;;;5105986;28;20235;-68
2022/08/18 13:44:19;;;;;;;1999.90;999.90;;;;;;;;;;5107874;28;20688;-68
2022/08/18 13:47:04;;;;;;;1999.90;999.90;;;;;;;;;;5109252;28;20211;-68
2022/08/18 13:49:50;;;;;;;1999.90;999.90;;;;;;;;;;5106133;28;20732;-68
2022/08/18 13:52:36;;;;;;;1999.90;999.90;;;;;;;;;;5104236;28;20248;-68
2022/08/18 13:55:27;;;;;;;1999.90;999.90;;;;;;;;;;5105194;28;20219;-69
2022/08/18 13:58:12;;;;;;;1999.90;999.90;;;;;;;;;;5107516;28;20407;-68
2022/08/18 14:00:58;;;;;;;1999.90;999.90;;;;;;;;;;5107693;28;20226;-67
2022/08/18 14:03:43;;;;;;;1999.90;999.90;;;;;;;;;;5103258;28;20260;-68
2022/08/18 14:06:30;;;;;;;1999.90;999.90;;;;;;;;;;5105532;28;20211;-67
2022/08/18 14:09:14;;;;;;;1999.90;999.90;;;;;;;;;;5109879;28;20222;-68
2022/08/18 14:11:59;;;;;;;1999.90;999.90;;;;;;;;;;5110118;28;20222;-65
2022/08/18 14:14:44;;;;;;;1999.90;999.90;;;;;;;;;;5109776;28;20195;-67
2022/08/18 14:17:29;;;;;;;1999.90;999.90;;;;;;;;;;5106673;28;20215;-67
2022/08/18 14:29:21;;;;;;;1999.90;999.90;;;;;;;;;;5106116;28;20733;-70
2022/08/18 14:32:06;;;;;;;1999.90;999.90;;;;;;;;;;5108174;28;20308;-70
2022/08/18 14:34:51;;;;;;;1999.90;999.90;;;;;;;;;;5103511;28;20203;-68
2022/08/18 14:37:35;;;;;;;1999.90;999.90;;;;;;;;;;5104238;28;20253;-68
2022/08/18 14:40:22;;;;;;;1999.90;999.90;;;;;;;;;;5110041;28;20231;-67
2022/08/18 14:43:07;;;;;;;1999.90;999.90;;;;;;;;;;5106663;28;20211;-67
2022/08/18 14:45:52;;;;;;;1999.90;999.90;;;;;;;;;;5107143;28;20211;-69
2022/08/18 14:48:38;;;;;;;1999.90;999.90;;;;;;;;;;5111111;28;20206;-67
2022/08/18 14:51:25;;;;;;;1999.90;999.90;;;;;;;;;;5113610;28;20806;-68
2022/08/18 14:54:10;;;;;;;1999.90;999.90;;;;;;;;;;5111330;28;20218;-69
2022/08/18 14:56:57;;;;;;;1999.90;999.90;;;;;;;;;;5111173;27;20426;-67
2022/08/18 14:59:42;;;;;;;1999.90;999.90;;;;;;;;;;5113071;28;20215;-67
2022/08/18 15:02:26;;;;;;;1999.90;999.90;;;;;;;;;;5109851;28;20215;-68
2022/08/18 15:05:12;;;;;;;1999.90;999.90;;;;;;;;;;5111268;28;20264;-69
2022/08/18 15:07:57;;;;;;;1999.90;999.90;;;;;;;;;;5111530;28;20252;-69
2022/08/18 15:10:43;;;;;;;1999.90;999.90;;;;;;;;;;5112807;28;20219;-68
2022/08/18 15:13:30;;;;;;;1999.90;999.90;;;;;;;;;;5110061;28;20215;-67
2022/08/18 15:16:15;;;;;;;1999.90;999.90;;;;;;;;;;5110053;28;20697;-69
2022/08/18 15:19:01;;;;;;;1999.90;999.90;;;;;;;;;;5109521;28;20309;-68
2022/08/18 15:27:52;;;;;;;1999.90;999.90;;;;;;;;;;5106172;28;20237;-67
2022/08/18 15:30:39;;;;;;;1999.90;999.90;;;;;;;;;;5108934;28;20246;-67
2022/08/18 15:33:26;;;;;;;1999.90;999.90;;;;;;;;;;5105619;28;20222;-67
2022/08/18 15:36:16;;;;;;;1999.90;999.90;;;;;;;;;;5111753;28;20202;-67
2022/08/18 15:39:04;;;;;;;1999.90;999.90;;;;;;;;;;5108574;28;20602;-66
2022/08/18 15:41:49;;;;;;;1999.90;999.90;;;;;;;;;;5110273;28;20215;-68
2022/08/18 15:44:34;;;;;;;1999.90;999.90;;;;;;;;;;5105650;28;20596;-68
2022/08/18 15:47:20;;;;;;;1999.90;999.90;;;;;;;;;;5104415;28;20211;-68
2022/08/18 15:50:06;;;;;;;1999.90;999.90;;;;;;;;;;5109176;28;20268;-67
2022/08/18 15:52:52;;;;;;;1999.90;999.90;;;;;;;;;;5110616;28;20776;-69
2022/08/18 15:55:38;;;;;;;1999.90;999.90;;;;;;;;;;5111034;28;20392;-68
2022/08/18 15:58:24;;;;;;;1999.90;999.90;;;;;;;;;;5110433;28;20692;-67
2022/08/18 16:01:10;;;;;;;1999.90;999.90;;;;;;;;;;5109963;28;20214;-66
2022/08/18 16:03:57;;;;;;;1999.90;999.90;;;;;;;;;;5110476;28;20261;-67
2022/08/18 16:06:46;;;;;;;1999.90;999.90;;;;;;;;;;5106360;28;20356;-67
2022/08/18 16:09:31;;;;;;;1999.90;999.90;;;;;;;;;;5110023;28;20311;-67
2022/08/18 16:12:16;;;;;;;1999.90;999.90;;;;;;;;;;5111764;28;20223;-68
2022/08/18 16:15:03;;;;;;;1999.90;999.90;;;;;;;;;;5107438;28;20222;-68
2022/08/18 16:17:49;;;;;;;1999.90;999.90;;;;;;;;;;5106678;28;20626;-68
2022/08/18 16:20:35;;;;;;;1999.90;999.90;;;;;;;;;;5110058;28;20349;-67
2022/08/18 16:23:20;;;;;;;1999.90;999.90;;;;;;;;;;5112015;28;20329;-67
2022/08/18 16:26:05;;;;;;;1999.90;999.90;;;;;;;;;;5111326;28;20700;-68
2022/08/18 16:28:51;;;;;;;1999.90;999.90;;;;;;;;;;5109775;28;20223;-67
2022/08/18 16:31:36;;;;;;;1999.90;999.90;;;;;;;;;;5105847;28;20213;-68
2022/08/18 16:34:21;;;;;;;1999.90;999.90;;;;;;;;;;5108250;28;20316;-70
2022/08/18 16:37:08;;;;;;;1999.90;999.90;;;;;;;;;;5108637;27;20212;-68
2022/08/18 16:39:55;;;;;;;1999.90;999.90;;;;;;;;;;5109179;28;20242;-68
2022/08/18 16:42:40;;;;;;;1999.90;999.90;;;;;;;;;;5110185;28;20209;-68
2022/08/18 16:45:25;;;;;;;1999.90;999.90;;;;;;;;;;5110837;28;20242;-67
2022/08/18 16:48:11;;;;;;;1999.90;999.90;;;;;;;;;;5111356;28;20201;-68
2022/08/18 16:50:57;;;;;;;1999.90;999.90;;;;;;;;;;5109188;28;20278;-68
2022/08/18 16:53:44;;;;;;;1999.90;999.90;;;;;;;;;;5110883;28;20587;-68
2022/08/18 16:56:33;;;;;;;1999.90;999.90;;;;;;;;;;5110975;28;20233;-68
2022/08/18 17:05:24;;;;;;;1999.90;999.90;;;;;;;;;;5111027;28;20196;-67